createdAt,value
2022-08-19T00:03:50.773Z,1015.3
2022-08-19T00:09:38.346Z,1015.3
2022-08-19T00:14:57.452Z,1015.2
2022-08-19T00:20:51.957Z,1015.3
2022-08-19T00:26:10.889Z,1015.2
2022-08-19T00:32:06.134Z,1015.1
2022-08-19T00:37:16.625Z,1015.1
2022-08-19T00:43:17.946Z,1015.2
2022-08-19T00:48:50.224Z,1015.3
2022-08-19T00:54:06.262Z,1015.3
2022-08-19T00:59:53.856Z,1015.4
2022-08-19T01:05:26.991Z,1015.4
2022-08-19T01:11:04.820Z,1015.3
2022-08-19T01:16:35.492Z,1015.3
2022-08-19T01:22:04.082Z,1015.2
2022-08-19T01:27:43.022Z,1015.2
2022-08-19T01:33:05.538Z,1015.3
2022-08-19T01:38:45.120Z,1015.3
2022-08-19T01:44:18.207Z,1015.2
2022-08-19T01:50:08.322Z,1015.2
2022-08-19T01:55:41.701Z,1015.2
2022-08-19T02:01:19.644Z,1015.2
2022-08-19T02:06:44.056Z,1015.2
2022-08-19T02:12:10.840Z,1015.3
2022-08-19T02:17:57.803Z,1015.3
2022-08-19T02:23:16.385Z,1015.2
2022-08-19T02:29:05.623Z,1015.2
2022-08-19T02:34:33.827Z,1015.2
2022-08-19T02:40:01.190Z,1015.3
2022-08-19T02:45:55.425Z,1015.4
2022-08-19T02:51:31.031Z,1015.4
2022-08-19T02:57:06.721Z,1015.6
2022-08-19T03:02:30.012Z,1015.7
2022-08-19T03:08:02.574Z,1015.7
2022-08-19T03:13:47.073Z,1015.7
2022-08-19T03:19:19.881Z,1015.8
2022-08-19T03:24:35.107Z,1016
2022-08-19T03:30:26.406Z,1016.1
2022-08-19T03:36:02.301Z,1016.2
2022-08-19T03:41:48.412Z,1016.1
2022-08-19T03:47:02.522Z,1015.8
2022-08-19T03:52:36.687Z,1015.7
2022-08-19T03:58:04.979Z,1015.7
2022-08-19T04:03:49.045Z,1015.7
2022-08-19T04:09:20.605Z,1015.8
2022-08-19T04:14:51.192Z,1015.7
2022-08-19T04:20:35.683Z,1015.9
2022-08-19T04:26:24.314Z,1015.8
2022-08-19T04:31:53.418Z,1015.8
2022-08-19T04:37:19.751Z,1015.9
2022-08-19T04:43:07.148Z,1016
2022-08-19T04:48:19.892Z,1016
2022-08-19T04:54:00.476Z,1016.1
2022-08-19T04:59:30.778Z,1016
2022-08-19T05:05:23.682Z,1016.1
2022-08-19T05:10:50.034Z,1016.1
2022-08-19T05:16:20.294Z,1016.3
2022-08-19T05:21:45.580Z,1016.3
2022-08-19T05:27:24.193Z,1016.4
2022-08-19T05:32:50.978Z,1016.4
2022-08-19T05:38:26.990Z,1016.4
2022-08-19T05:44:13.280Z,1016.5
2022-08-19T05:55:22.536Z,1016.5
2022-08-19T06:01:00.673Z,1016.6
2022-08-19T06:06:46.745Z,1016.6
2022-08-19T06:12:14.920Z,1016.7
2022-08-19T06:17:52.382Z,1016.6
2022-08-19T06:28:49.121Z,1016.8
2022-08-19T06:34:17.231Z,1016.9
2022-08-19T06:40:13.390Z,1016.8
2022-08-19T06:45:49.515Z,1016.8
2022-08-19T06:51:19.172Z,1016.9
2022-08-19T06:56:57.791Z,1016.9
2022-08-19T07:02:09.603Z,1017.1
2022-08-19T07:08:09.821Z,1017
2022-08-19T07:13:32.486Z,1017
2022-08-19T07:19:16.333Z,1017.1
2022-08-19T07:24:51.027Z,1017.1
2022-08-19T07:35:52.675Z,1017.2
2022-08-19T07:41:32.319Z,1017.3
2022-08-19T07:52:35.080Z,1017.2
2022-08-19T07:58:07.595Z,1017.3
2022-08-19T08:03:56.306Z,1017.4
2022-08-19T08:09:10.405Z,1017.4
2022-08-19T08:14:43.969Z,1017.6
2022-08-19T08:20:19.171Z,1017.6
2022-08-19T08:26:05.411Z,1017.7
2022-08-19T08:31:58.425Z,1017.6
2022-08-19T08:37:06.183Z,1017.7
2022-08-19T08:42:41.450Z,1017.8
2022-08-19T08:48:35.986Z,1017.9
2022-08-19T08:53:49.439Z,1018
2022-08-19T08:59:27.347Z,1018.1
2022-08-19T09:05:10.156Z,1018.1
2022-08-19T09:10:44.117Z,1018.1
2022-08-19T09:16:33.660Z,1018.1
2022-08-19T09:22:01.706Z,1018.1
2022-08-19T09:27:35.539Z,1018.2
2022-08-19T09:32:56.504Z,1018.2
2022-08-19T09:38:53.467Z,1018.2
2022-08-19T09:44:33.043Z,1018.3
2022-08-19T09:49:56.264Z,1018.4
2022-08-19T09:55:24.186Z,1018.4
2022-08-19T10:01:19.768Z,1018.5
2022-08-19T10:06:38.182Z,1018.4
2022-08-19T10:12:20.797Z,1018.4
2022-08-19T10:17:47.616Z,1018.5
2022-08-19T10:29:16.020Z,1018.4
2022-08-19T10:34:27.753Z,1018.4
2022-08-19T10:40:03.367Z,1018.3
2022-08-19T10:45:34.149Z,1018.1
2022-08-19T10:51:26.409Z,1018.1
2022-08-19T10:57:13.417Z,1018.2
2022-08-19T11:02:32.846Z,1018.2
2022-08-19T11:08:23.969Z,1018.3
2022-08-19T11:13:40.320Z,1018.1
2022-08-19T11:19:27.427Z,1018.1
2022-08-19T11:25:04.601Z,1017.9
2022-08-19T11:30:38.918Z,1017.8
2022-08-19T11:36:08.734Z,1017.8
2022-08-19T11:42:01.468Z,1017.7
2022-08-19T11:47:19.566Z,1017.8
2022-08-19T11:52:47.024Z,1017.8
2022-08-19T11:58:31.249Z,1017.6
2022-08-19T12:04:01.221Z,1017.6
2022-08-19T12:10:01.979Z,1017.6
2022-08-19T12:15:38.301Z,1017.8
2022-08-19T12:21:04.216Z,1017.8
2022-08-19T12:26:53.073Z,1017.6
2022-08-19T12:32:23.527Z,1017.5
2022-08-19T12:37:59.517Z,1017.4
2022-08-19T12:43:41.427Z,1017.5
2022-08-19T12:49:14.087Z,1017.4
2022-08-19T12:54:49.032Z,1017.4
2022-08-19T13:00:13.988Z,1017.3
2022-08-19T13:06:00.308Z,1017.2
2022-08-19T13:11:19.229Z,1017.2
2022-08-19T13:17:01.669Z,1017.2
2022-08-19T13:22:49.871Z,1017.2
2022-08-19T13:28:18.709Z,1017.1
2022-08-19T13:33:41.455Z,1017.1
2022-08-19T13:39:33.458Z,1017
2022-08-19T13:45:04.732Z,1016.9
2022-08-19T13:50:39.719Z,1016.8
2022-08-19T13:56:25.991Z,1016.8
2022-08-19T14:01:49.140Z,1017
2022-08-19T14:07:41.859Z,1017
2022-08-19T14:13:05.899Z,1016.8
2022-08-19T14:18:37.147Z,1017
2022-08-19T14:24:19.697Z,1017
2022-08-19T14:29:45.781Z,1017.4
2022-08-19T14:35:16.755Z,1017.9
2022-08-19T14:41:15.367Z,1018.2
2022-08-19T14:46:38.134Z,1018.2
2022-08-19T14:52:17.099Z,1018.5
2022-08-19T14:57:43.954Z,1018.7
2022-08-19T15:03:19.687Z,1018.7
2022-08-19T15:09:11.334Z,1018.8
2022-08-19T15:14:49.495Z,1018.8
2022-08-19T15:20:20.253Z,1018.8
2022-08-19T15:25:55.466Z,1018.9
2022-08-19T15:31:38.021Z,1019
2022-08-19T15:37:03.770Z,1019
2022-08-19T15:42:53.011Z,1019.1
2022-08-19T15:48:28.498Z,1019.1
2022-08-19T15:54:00.433Z,1019.1
2022-08-19T15:59:30.166Z,1019.1
2022-08-19T16:05:01.730Z,1019.1
2022-08-19T16:10:40.068Z,1018.9
2022-08-19T16:16:18.805Z,1018.9
2022-08-19T16:21:51.231Z,1019.1
2022-08-19T16:27:38.692Z,1019.2
2022-08-19T16:33:01.332Z,1019.2
2022-08-19T16:38:28.460Z,1019.3
2022-08-19T16:44:16.135Z,1019.3
2022-08-19T16:49:55.373Z,1019.5
2022-08-19T16:55:18.390Z,1019.6
2022-08-19T17:01:07.400Z,1019.6
2022-08-19T17:06:30.616Z,1019.5
2022-08-19T17:12:30.681Z,1019.6
2022-08-19T17:17:55.410Z,1019.6
2022-08-19T17:23:17.740Z,1019.6
2022-08-19T17:29:06.206Z,1019.6
2022-08-19T17:34:28.319Z,1019.6
2022-08-19T17:40:26.476Z,1019.7
2022-08-19T17:46:02.027Z,1019.7
2022-08-19T17:51:13.675Z,1019.7
2022-08-19T17:57:03.202Z,1019.7
2022-08-19T18:02:36.635Z,1019.7
2022-08-19T18:07:57.855Z,1019.8
2022-08-19T18:13:35.375Z,1019.9
2022-08-19T18:19:09.932Z,1019.9
2022-08-19T18:30:38.870Z,1020.1
2022-08-19T18:35:59.659Z,1020.3
2022-08-19T18:41:35.041Z,1020.4
2022-08-19T18:47:17.080Z,1020.4
2022-08-19T18:52:56.939Z,1020.6
2022-08-19T18:58:32.584Z,1020.6
2022-08-19T19:03:42.000Z,1020.7
2022-08-19T19:09:16.164Z,1020.8
2022-08-19T19:15:04.145Z,1020.9
2022-08-19T19:20:39.688Z,1020.9
2022-08-19T19:26:00.199Z,1020.9
2022-08-19T19:31:40.878Z,1020.9
2022-08-19T19:37:16.438Z,1021
2022-08-19T19:42:53.529Z,1021.1
2022-08-19T19:48:18.120Z,1021.1
2022-08-19T19:54:23.528Z,1021.2
2022-08-19T19:59:39.747Z,1021.1
2022-08-19T20:05:25.280Z,1021.1
2022-08-19T20:11:00.590Z,1021.3
2022-08-19T20:16:20.897Z,1021.4
2022-08-19T20:21:58.465Z,1021.5
2022-08-19T20:27:45.009Z,1021.5
2022-08-19T20:33:07.310Z,1021.5
2022-08-19T20:38:28.024Z,1021.6
2022-08-19T20:44:17.010Z,1021.5
2022-08-19T20:50:02.245Z,1021.6
2022-08-19T20:55:18.770Z,1021.5
2022-08-19T21:00:47.507Z,1021.4
2022-08-19T21:06:32.478Z,1021.4
2022-08-19T21:12:05.706Z,1021.5
2022-08-19T21:17:29.899Z,1021.5
2022-08-19T21:23:18.692Z,1021.4
2022-08-19T21:29:02.330Z,1021.4
2022-08-19T21:34:24.223Z,1021.4
2022-08-19T21:40:04.211Z,1021.4
2022-08-19T21:45:25.153Z,1021.4
2022-08-19T21:51:14.682Z,1021.4
2022-08-19T21:56:33.470Z,1021.5
2022-08-19T22:02:20.961Z,1021.5
2022-08-19T22:07:40.494Z,1021.5
2022-08-19T22:13:18.960Z,1021.5
2022-08-19T22:19:05.874Z,1021.5
2022-08-19T22:24:42.152Z,1021.5
2022-08-19T22:30:06.995Z,1021.5
2022-08-19T22:35:37.500Z,1021.6
2022-08-19T22:41:23.394Z,1021.6
2022-08-19T22:46:45.861Z,1021.5
2022-08-19T22:52:32.806Z,1021.4
2022-08-19T22:57:59.769Z,1021.4
2022-08-19T23:03:25.987Z,1021.4
2022-08-19T23:09:16.461Z,1021.3
2022-08-19T23:14:48.304Z,1021.3
2022-08-19T23:20:09.821Z,1021.3
2022-08-19T23:25:55.515Z,1021.2
2022-08-19T23:31:33.218Z,1021.3
2022-08-19T23:37:04.126Z,1021.2
2022-08-19T23:42:43.278Z,1021.1
2022-08-19T23:48:15.630Z,1021.2
2022-08-19T23:53:38.099Z,1021
2022-08-19T23:59:32.406Z,1021
